sensor_id;sensor_type;location;lat;lon;timestamp;pressure;altitude;pressure_sealevel;temperature;humidity
38900;BME280;24660;43.238;26.576;2022-07-05T00:01:40;99374.88;;;17.94;100.00
38900;BME280;24660;43.238;26.576;2022-07-05T00:04:05;99375.44;;;18.29;100.00
38900;BME280;24660;43.238;26.576;2022-07-05T00:06:31;99372.06;;;18.35;100.00
38900;BME280;24660;43.238;26.576;2022-07-05T00:08:56;99372.63;;;18.14;100.00
38900;BME280;24660;43.238;26.576;2022-07-05T00:11:21;99374.44;;;18.69;100.00
38900;BME280;24660;43.238;26.576;2022-07-05T00:13:47;99367.41;;;18.52;100.00
38900;BME280;24660;43.238;26.576;2022-07-05T00:16:12;99367.25;;;18.06;100.00
38900;BME280;24660;43.238;26.576;2022-07-05T00:18:37;99371.88;;;17.89;100.00
38900;BME280;24660;43.238;26.576;2022-07-05T00:21:03;99368.16;;;17.90;100.00
38900;BME280;24660;43.238;26.576;2022-07-05T00:23:28;99358.84;;;17.93;100.00
38900;BME280;24660;43.238;26.576;2022-07-05T00:25:53;99366.28;;;17.83;100.00
38900;BME280;24660;43.238;26.576;2022-07-05T00:28:19;99363.88;;;18.04;100.00
38900;BME280;24660;43.238;26.576;2022-07-05T00:30:44;99361.69;;;17.99;100.00
38900;BME280;24660;43.238;26.576;2022-07-05T00:33:09;99362.53;;;18.00;100.00
38900;BME280;24660;43.238;26.576;2022-07-05T00:35:35;99365.25;;;17.92;100.00
38900;BME280;24660;43.238;26.576;2022-07-05T00:38:00;99372.50;;;17.99;100.00
38900;BME280;24660;43.238;26.576;2022-07-05T00:40:25;99368.69;;;18.25;100.00
38900;BME280;24660;43.238;26.576;2022-07-05T00:42:51;99361.81;;;18.14;100.00
38900;BME280;24660;43.238;26.576;2022-07-05T00:45:17;99364.78;;;17.80;100.00
38900;BME280;24660;43.238;26.576;2022-07-05T00:47:43;99369.84;;;17.83;100.00
38900;BME280;24660;43.238;26.576;2022-07-05T00:50:08;99367.25;;;17.98;100.00
38900;BME280;24660;43.238;26.576;2022-07-05T00:52:34;99369.34;;;17.88;100.00
38900;BME280;24660;43.238;26.576;2022-07-05T00:54:59;99379.47;;;17.53;100.00
38900;BME280;24660;43.238;26.576;2022-07-05T00:57:25;99371.38;;;17.61;100.00
38900;BME280;24660;43.238;26.576;2022-07-05T00:59:50;99365.78;;;17.79;100.00
38900;BME280;24660;43.238;26.576;2022-07-05T01:02:16;99353.34;;;18.17;100.00
38900;BME280;24660;43.238;26.576;2022-07-05T01:04:41;99358.84;;;17.93;100.00
38900;BME280;24660;43.238;26.576;2022-07-05T01:07:06;99355.47;;;17.66;100.00
38900;BME280;24660;43.238;26.576;2022-07-05T01:09:32;99365.97;;;17.45;100.00
38900;BME280;24660;43.238;26.576;2022-07-05T01:11:58;99369.38;;;17.47;100.00
38900;BME280;24660;43.238;26.576;2022-07-05T01:14:24;99364.28;;;17.36;100.00
38900;BME280;24660;43.238;26.576;2022-07-05T01:16:50;99367.31;;;17.73;100.00
38900;BME280;24660;43.238;26.576;2022-07-05T01:19:16;99354.94;;;18.03;100.00
38900;BME280;24660;43.238;26.576;2022-07-05T01:21:43;99351.25;;;17.56;100.00
38900;BME280;24660;43.238;26.576;2022-07-05T01:24:09;99351.28;;;17.47;100.00
38900;BME280;24660;43.238;26.576;2022-07-05T01:26:35;99347.06;;;17.69;100.00
38900;BME280;24660;43.238;26.576;2022-07-05T01:29:01;99348.03;;;17.85;100.00
38900;BME280;24660;43.238;26.576;2022-07-05T01:31:26;99344.00;;;17.56;100.00
38900;BME280;24660;43.238;26.576;2022-07-05T01:33:52;99348.22;;;17.59;100.00
38900;BME280;24660;43.238;26.576;2022-07-05T01:36:17;99354.63;;;17.82;100.00
38900;BME280;24660;43.238;26.576;2022-07-05T01:38:43;99351.69;;;18.00;100.00
38900;BME280;24660;43.238;26.576;2022-07-05T01:41:08;99348.38;;;17.82;100.00
38900;BME280;24660;43.238;26.576;2022-07-05T01:43:35;99350.59;;;17.54;100.00
38900;BME280;24660;43.238;26.576;2022-07-05T01:46:01;99353.81;;;17.41;100.00
38900;BME280;24660;43.238;26.576;2022-07-05T01:48:26;99346.22;;;17.52;100.00
38900;BME280;24660;43.238;26.576;2022-07-05T01:50:54;99346.53;;;17.66;100.00
38900;BME280;24660;43.238;26.576;2022-07-05T01:53:23;99348.91;;;17.61;100.00
38900;BME280;24660;43.238;26.576;2022-07-05T01:55:49;99342.00;;;17.34;100.00
38900;BME280;24660;43.238;26.576;2022-07-05T01:58:15;99353.47;;;17.11;100.00
38900;BME280;24660;43.238;26.576;2022-07-05T02:00:41;99346.56;;;17.09;100.00
38900;BME280;24660;43.238;26.576;2022-07-05T02:03:07;99352.47;;;17.29;100.00
38900;BME280;24660;43.238;26.576;2022-07-05T02:05:32;99345.31;;;17.93;100.00
38900;BME280;24660;43.238;26.576;2022-07-05T02:07:58;99340.63;;;17.54;100.00
38900;BME280;24660;43.238;26.576;2022-07-05T02:10:23;99358.41;;;17.32;100.00
38900;BME280;24660;43.238;26.576;2022-07-05T02:12:48;99342.34;;;17.14;100.00
38900;BME280;24660;43.238;26.576;2022-07-05T02:15:14;99353.63;;;16.94;100.00
38900;BME280;24660;43.238;26.576;2022-07-05T02:17:39;99365.28;;;16.94;100.00
38900;BME280;24660;43.238;26.576;2022-07-05T02:20:04;99361.06;;;17.57;100.00
38900;BME280;24660;43.238;26.576;2022-07-05T02:22:31;99347.41;;;17.42;100.00
38900;BME280;24660;43.238;26.576;2022-07-05T02:24:57;99356.03;;;17.05;100.00
38900;BME280;24660;43.238;26.576;2022-07-05T02:27:22;99355.19;;;17.37;100.00
38900;BME280;24660;43.238;26.576;2022-07-05T02:29:47;99362.75;;;17.41;100.00
38900;BME280;24660;43.238;26.576;2022-07-05T02:32:12;99355.16;;;17.53;100.00
38900;BME280;24660;43.238;26.576;2022-07-05T02:34:38;99359.22;;;17.41;100.00
38900;BME280;24660;43.238;26.576;2022-07-05T02:37:03;99369.19;;;17.24;100.00
38900;BME280;24660;43.238;26.576;2022-07-05T02:39:28;99374.41;;;17.42;100.00
38900;BME280;24660;43.238;26.576;2022-07-05T02:41:54;99372.88;;;17.15;100.00
38900;BME280;24660;43.238;26.576;2022-07-05T02:44:19;99369.53;;;17.05;100.00
38900;BME280;24660;43.238;26.576;2022-07-05T02:46:44;99370.03;;;17.25;100.00
38900;BME280;24660;43.238;26.576;2022-07-05T02:49:10;99373.75;;;17.32;100.00
38900;BME280;24660;43.238;26.576;2022-07-05T02:51:35;99369.69;;;17.11;100.00
38900;BME280;24660;43.238;26.576;2022-07-05T02:54:00;99378.81;;;17.18;100.00
38900;BME280;24660;43.238;26.576;2022-07-05T02:56:26;99381.16;;;17.13;100.00
38900;BME280;24660;43.238;26.576;2022-07-05T02:58:51;99384.88;;;17.12;100.00
38900;BME280;24660;43.238;26.576;2022-07-05T03:01:16;99382.69;;;17.08;100.00
38900;BME280;24660;43.238;26.576;2022-07-05T03:03:42;99386.75;;;17.20;100.00
38900;BME280;24660;43.238;26.576;2022-07-05T03:06:07;99387.94;;;17.42;100.00
38900;BME280;24660;43.238;26.576;2022-07-05T03:08:32;99390.81;;;17.40;100.00
38900;BME280;24660;43.238;26.576;2022-07-05T03:10:57;99385.38;;;17.73;100.00
38900;BME280;24660;43.238;26.576;2022-07-05T03:13:23;99374.41;;;17.58;100.00
38900;BME280;24660;43.238;26.576;2022-07-05T03:15:48;99386.59;;;17.46;100.00
38900;BME280;24660;43.238;26.576;2022-07-05T03:18:13;99389.28;;;17.62;100.00
38900;BME280;24660;43.238;26.576;2022-07-05T03:20:39;99377.81;;;17.60;100.00
38900;BME280;24660;43.238;26.576;2022-07-05T03:23:04;99383.84;;;18.03;100.00
38900;BME280;24660;43.238;26.576;2022-07-05T03:25:30;99374.75;;;17.88;100.00
38900;BME280;24660;43.238;26.576;2022-07-05T03:27:55;99363.75;;;17.89;100.00
38900;BME280;24660;43.238;26.576;2022-07-05T03:30:21;99367.59;;;18.03;100.00
38900;BME280;24660;43.238;26.576;2022-07-05T03:32:46;99367.63;;;17.87;100.00
38900;BME280;24660;43.238;26.576;2022-07-05T03:35:11;99366.97;;;17.85;100.00
38900;BME280;24660;43.238;26.576;2022-07-05T03:37:37;99366.47;;;17.81;100.00
38900;BME280;24660;43.238;26.576;2022-07-05T03:40:02;99374.09;;;17.77;100.00
38900;BME280;24660;43.238;26.576;2022-07-05T03:42:28;99367.75;;;18.09;100.00
38900;BME280;24660;43.238;26.576;2022-07-05T03:44:53;99374.56;;;18.36;100.00
38900;BME280;24660;43.238;26.576;2022-07-05T03:47:19;99365.81;;;18.26;100.00
38900;BME280;24660;43.238;26.576;2022-07-05T03:49:45;99373.03;;;18.03;100.00
38900;BME280;24660;43.238;26.576;2022-07-05T03:52:10;99375.31;;;18.22;100.00
38900;BME280;24660;43.238;26.576;2022-07-05T03:54:35;99367.88;;;18.55;100.00
38900;BME280;24660;43.238;26.576;2022-07-05T03:57:00;99377.56;;;18.89;100.00
38900;BME280;24660;43.238;26.576;2022-07-05T03:59:26;99363.19;;;18.10;100.00
38900;BME280;24660;43.238;26.576;2022-07-05T04:01:51;99371.22;;;18.34;100.00
38900;BME280;24660;43.238;26.576;2022-07-05T04:04:16;99372.22;;;18.33;100.00
38900;BME280;24660;43.238;26.576;2022-07-05T04:06:42;99357.91;;;18.64;100.00
38900;BME280;24660;43.238;26.576;2022-07-05T04:09:07;99355.63;;;18.98;100.00
38900;BME280;24660;43.238;26.576;2022-07-05T04:11:32;99355.81;;;18.97;100.00
38900;BME280;24660;43.238;26.576;2022-07-05T04:13:58;99363.47;;;18.93;100.00
38900;BME280;24660;43.238;26.576;2022-07-05T04:16:23;99365.34;;;18.93;100.00
38900;BME280;24660;43.238;26.576;2022-07-05T04:18:48;99368.59;;;19.34;100.00
38900;BME280;24660;43.238;26.576;2022-07-05T04:21:14;99351.13;;;19.60;100.00
38900;BME280;24660;43.238;26.576;2022-07-05T04:23:39;99347.41;;;19.52;100.00
38900;BME280;24660;43.238;26.576;2022-07-05T04:26:04;99349.19;;;19.98;98.53
38900;BME280;24660;43.238;26.576;2022-07-05T04:28:30;99345.47;;;20.13;96.23
38900;BME280;24660;43.238;26.576;2022-07-05T04:30:56;99345.47;;;19.99;96.78
38900;BME280;24660;43.238;26.576;2022-07-05T04:33:21;99350.09;;;20.34;95.28
38900;BME280;24660;43.238;26.576;2022-07-05T04:35:46;99350.13;;;20.49;95.08
38900;BME280;24660;43.238;26.576;2022-07-05T04:38:12;99356.81;;;20.68;93.01
38900;BME280;24660;43.238;26.576;2022-07-05T04:40:37;99351.06;;;21.14;84.51
38900;BME280;24660;43.238;26.576;2022-07-05T04:43:02;99359.28;;;20.99;84.88
38900;BME280;24660;43.238;26.576;2022-07-05T04:45:28;99357.41;;;20.99;86.46
38900;BME280;24660;43.238;26.576;2022-07-05T04:47:53;99354.22;;;21.17;85.41
38900;BME280;24660;43.238;26.576;2022-07-05T04:50:18;99350.13;;;21.49;82.80
38900;BME280;24660;43.238;26.576;2022-07-05T04:52:44;99355.66;;;21.56;81.29
38900;BME280;24660;43.238;26.576;2022-07-05T04:55:09;99350.78;;;21.79;78.83
38900;BME280;24660;43.238;26.576;2022-07-05T04:57:42;99355.47;;;21.92;78.45
38900;BME280;24660;43.238;26.576;2022-07-05T05:00:08;99358.72;;;21.74;78.82
38900;BME280;24660;43.238;26.576;2022-07-05T05:02:34;99363.94;;;22.04;74.18
38900;BME280;24660;43.238;26.576;2022-07-05T05:05:00;99370.69;;;22.08;74.73
38900;BME280;24660;43.238;26.576;2022-07-05T05:07:25;99368.34;;;22.05;75.80
38900;BME280;24660;43.238;26.576;2022-07-05T05:09:51;99376.59;;;22.11;74.63
38900;BME280;24660;43.238;26.576;2022-07-05T05:12:16;99377.56;;;22.04;72.21
38900;BME280;24660;43.238;26.576;2022-07-05T05:14:41;99376.59;;;21.83;72.81
38900;BME280;24660;43.238;26.576;2022-07-05T05:17:07;99377.06;;;21.66;73.74
38900;BME280;24660;43.238;26.576;2022-07-05T05:19:32;99384.19;;;21.67;74.79
38900;BME280;24660;43.238;26.576;2022-07-05T05:21:57;99379.78;;;21.93;73.82
38900;BME280;24660;43.238;26.576;2022-07-05T05:24:22;99384.88;;;22.38;71.52
38900;BME280;24660;43.238;26.576;2022-07-05T05:26:48;99394.16;;;22.43;72.71
38900;BME280;24660;43.238;26.576;2022-07-05T05:29:14;99392.47;;;22.08;71.97
38900;BME280;24660;43.238;26.576;2022-07-05T05:31:39;99391.59;;;22.35;71.99
38900;BME280;24660;43.238;26.576;2022-07-05T05:34:04;99394.94;;;22.78;70.93
38900;BME280;24660;43.238;26.576;2022-07-05T05:36:30;99389.25;;;22.67;73.05
38900;BME280;24660;43.238;26.576;2022-07-05T05:38:55;99390.81;;;22.89;71.35
38900;BME280;24660;43.238;26.576;2022-07-05T05:41:20;99398.84;;;23.10;70.42
38900;BME280;24660;43.238;26.576;2022-07-05T05:43:46;99393.38;;;23.04;69.91
38900;BME280;24660;43.238;26.576;2022-07-05T05:46:14;99389.19;;;23.08;68.05
38900;BME280;24660;43.238;26.576;2022-07-05T05:48:39;99401.19;;;23.33;68.05
38900;BME280;24660;43.238;26.576;2022-07-05T05:51:04;99400.63;;;23.64;67.09
38900;BME280;24660;43.238;26.576;2022-07-05T05:53:30;99400.84;;;23.83;66.80
38900;BME280;24660;43.238;26.576;2022-07-05T05:55:55;99394.97;;;23.79;67.04
38900;BME280;24660;43.238;26.576;2022-07-05T05:58:21;99402.69;;;24.15;65.07
38900;BME280;24660;43.238;26.576;2022-07-05T06:00:47;99398.31;;;24.01;65.60
38900;BME280;24660;43.238;26.576;2022-07-05T06:03:15;99402.69;;;24.22;64.42
38900;BME280;24660;43.238;26.576;2022-07-05T06:05:41;99403.94;;;23.40;65.47
38900;BME280;24660;43.238;26.576;2022-07-05T06:08:06;99413.19;;;23.39;67.02
38900;BME280;24660;43.238;26.576;2022-07-05T06:10:38;99402.94;;;23.87;65.97
38900;BME280;24660;43.238;26.576;2022-07-05T06:13:06;99400.81;;;24.36;63.14
38900;BME280;24660;43.238;26.576;2022-07-05T06:15:32;99410.44;;;24.45;62.38
38900;BME280;24660;43.238;26.576;2022-07-05T06:17:58;99410.22;;;24.53;61.56
38900;BME280;24660;43.238;26.576;2022-07-05T06:20:25;99415.84;;;24.65;61.12
38900;BME280;24660;43.238;26.576;2022-07-05T06:22:51;99418.72;;;24.83;60.54
38900;BME280;24660;43.238;26.576;2022-07-05T06:25:16;99413.97;;;24.58;61.00
38900;BME280;24660;43.238;26.576;2022-07-05T06:27:43;99411.03;;;24.60;60.79
38900;BME280;24660;43.238;26.576;2022-07-05T06:30:09;99412.69;;;24.68;62.11
38900;BME280;24660;43.238;26.576;2022-07-05T06:32:35;99410.22;;;25.11;60.17
38900;BME280;24660;43.238;26.576;2022-07-05T06:35:00;99413.69;;;25.25;60.45
38900;BME280;24660;43.238;26.576;2022-07-05T06:37:25;99423.34;;;25.59;60.29
38900;BME280;24660;43.238;26.576;2022-07-05T06:39:51;99421.53;;;25.53;58.63
38900;BME280;24660;43.238;26.576;2022-07-05T06:42:16;99424.13;;;25.41;58.71
38900;BME280;24660;43.238;26.576;2022-07-05T06:44:41;99431.63;;;25.52;58.35
38900;BME280;24660;43.238;26.576;2022-07-05T06:47:07;99432.31;;;26.04;56.99
38900;BME280;24660;43.238;26.576;2022-07-05T06:49:32;99427.00;;;26.09;56.46
38900;BME280;24660;43.238;26.576;2022-07-05T06:51:58;99424.31;;;26.46;54.74
38900;BME280;24660;43.238;26.576;2022-07-05T06:54:23;99425.38;;;26.45;54.73
38900;BME280;24660;43.238;26.576;2022-07-05T06:56:48;99430.25;;;26.98;53.75
38900;BME280;24660;43.238;26.576;2022-07-05T06:59:14;99435.06;;;27.62;51.37
38900;BME280;24660;43.238;26.576;2022-07-05T07:01:39;99445.88;;;27.75;51.38
38900;BME280;24660;43.238;26.576;2022-07-05T07:04:04;99441.38;;;27.51;51.53
38900;BME280;24660;43.238;26.576;2022-07-05T07:06:29;99436.34;;;27.18;51.66
38900;BME280;24660;43.238;26.576;2022-07-05T07:08:55;99434.63;;;27.05;51.78
38900;BME280;24660;43.238;26.576;2022-07-05T07:11:35;99426.84;;;27.02;51.58
38900;BME280;24660;43.238;26.576;2022-07-05T07:14:01;99422.22;;;26.48;53.57
38900;BME280;24660;43.238;26.576;2022-07-05T07:16:26;99423.72;;;27.29;51.20
38900;BME280;24660;43.238;26.576;2022-07-05T07:18:51;99433.81;;;27.76;51.40
38900;BME280;24660;43.238;26.576;2022-07-05T07:21:17;99430.25;;;27.88;50.68
38900;BME280;24660;43.238;26.576;2022-07-05T07:23:42;99418.34;;;28.41;49.16
38900;BME280;24660;43.238;26.576;2022-07-05T07:26:08;99426.22;;;28.60;47.83
38900;BME280;24660;43.238;26.576;2022-07-05T07:28:33;99436.50;;;28.42;47.53
38900;BME280;24660;43.238;26.576;2022-07-05T07:31:01;99427.50;;;28.69;47.66
38900;BME280;24660;43.238;26.576;2022-07-05T07:33:26;99432.16;;;28.69;46.15
38900;BME280;24660;43.238;26.576;2022-07-05T07:35:52;99427.22;;;28.83;46.74
38900;BME280;24660;43.238;26.576;2022-07-05T07:38:18;99423.44;;;28.14;46.46
38900;BME280;24660;43.238;26.576;2022-07-05T07:40:43;99427.28;;;28.13;46.65
38900;BME280;24660;43.238;26.576;2022-07-05T07:43:08;99423.59;;;28.42;46.47
38900;BME280;24660;43.238;26.576;2022-07-05T07:45:34;99431.22;;;28.05;49.35
38900;BME280;24660;43.238;26.576;2022-07-05T07:47:59;99429.13;;;27.65;49.09
38900;BME280;24660;43.238;26.576;2022-07-05T07:50:24;99424.91;;;28.16;47.27
38900;BME280;24660;43.238;26.576;2022-07-05T07:52:50;99425.81;;;28.68;45.98
38900;BME280;24660;43.238;26.576;2022-07-05T07:55:15;99432.28;;;27.80;49.58
38900;BME280;24660;43.238;26.576;2022-07-05T07:57:41;99430.72;;;27.85;49.42
38900;BME280;24660;43.238;26.576;2022-07-05T08:00:06;99422.72;;;27.83;49.31
38900;BME280;24660;43.238;26.576;2022-07-05T08:02:35;99424.09;;;27.62;49.13
38900;BME280;24660;43.238;26.576;2022-07-05T08:05:01;99427.47;;;27.34;50.37
38900;BME280;24660;43.238;26.576;2022-07-05T08:07:27;99423.91;;;27.75;48.04
38900;BME280;24660;43.238;26.576;2022-07-05T08:09:52;99432.16;;;27.99;47.61
38900;BME280;24660;43.238;26.576;2022-07-05T08:12:18;99432.28;;;27.92;47.36
38900;BME280;24660;43.238;26.576;2022-07-05T08:14:43;99436.94;;;27.92;46.92
38900;BME280;24660;43.238;26.576;2022-07-05T08:17:08;99437.53;;;27.94;47.27
38900;BME280;24660;43.238;26.576;2022-07-05T08:19:34;99429.13;;;28.30;44.90
38900;BME280;24660;43.238;26.576;2022-07-05T08:22:15;99417.75;;;28.50;46.27
38900;BME280;24660;43.238;26.576;2022-07-05T08:24:40;99426.13;;;28.44;46.92
38900;BME280;24660;43.238;26.576;2022-07-05T08:27:05;99415.97;;;28.44;45.39
38900;BME280;24660;43.238;26.576;2022-07-05T08:29:31;99414.97;;;28.62;44.97
38900;BME280;24660;43.238;26.576;2022-07-05T08:31:56;99420.13;;;29.10;45.23
38900;BME280;24660;43.238;26.576;2022-07-05T08:34:22;99419.06;;;29.00;43.21
38900;BME280;24660;43.238;26.576;2022-07-05T08:36:47;99418.19;;;29.11;45.56
38900;BME280;24660;43.238;26.576;2022-07-05T08:39:13;99413.41;;;29.18;45.16
38900;BME280;24660;43.238;26.576;2022-07-05T08:41:40;99416.38;;;28.76;45.79
38900;BME280;24660;43.238;26.576;2022-07-05T08:44:06;99420.13;;;29.10;45.96
38900;BME280;24660;43.238;26.576;2022-07-05T08:46:32;99416.13;;;28.89;45.96
38900;BME280;24660;43.238;26.576;2022-07-05T08:49:00;99405.84;;;29.13;45.24
38900;BME280;24660;43.238;26.576;2022-07-05T08:51:28;99421.31;;;29.88;44.32
38900;BME280;24660;43.238;26.576;2022-07-05T08:53:53;99422.63;;;29.85;44.81
38900;BME280;24660;43.238;26.576;2022-07-05T08:56:20;99413.69;;;29.62;45.07
38900;BME280;24660;43.238;26.576;2022-07-05T08:58:46;99411.59;;;29.40;44.96
38900;BME280;24660;43.238;26.576;2022-07-05T09:01:14;99405.19;;;29.35;43.91
38900;BME280;24660;43.238;26.576;2022-07-05T09:06:07;99414.44;;;29.91;44.32
38900;BME280;24660;43.238;26.576;2022-07-05T09:08:34;99415.03;;;30.09;43.42
38900;BME280;24660;43.238;26.576;2022-07-05T09:11:03;99409.78;;;30.08;44.52
38900;BME280;24660;43.238;26.576;2022-07-05T09:13:33;99404.09;;;30.31;44.12
38900;BME280;24660;43.238;26.576;2022-07-05T09:15:58;99409.97;;;30.40;42.35
38900;BME280;24660;43.238;26.576;2022-07-05T09:21:13;99417.22;;;30.07;42.96
38900;BME280;24660;43.238;26.576;2022-07-05T09:23:39;99408.03;;;30.19;42.49
38900;BME280;24660;43.238;26.576;2022-07-05T09:26:04;99402.94;;;30.49;41.38
38900;BME280;24660;43.238;26.576;2022-07-05T09:28:30;99402.06;;;31.09;41.31
38900;BME280;24660;43.238;26.576;2022-07-05T09:30:55;99412.13;;;31.42;41.78
38900;BME280;24660;43.238;26.576;2022-07-05T09:33:20;99401.69;;;30.79;39.87
38900;BME280;24660;43.238;26.576;2022-07-05T09:35:53;99393.69;;;30.99;40.86
38900;BME280;24660;43.238;26.576;2022-07-05T09:38:22;99394.56;;;31.05;40.98
38900;BME280;24660;43.238;26.576;2022-07-05T09:40:51;99395.66;;;30.82;41.06
38900;BME280;24660;43.238;26.576;2022-07-05T09:43:18;99404.09;;;31.41;40.41
38900;BME280;24660;43.238;26.576;2022-07-05T09:45:55;99389.34;;;31.08;40.85
38900;BME280;24660;43.238;26.576;2022-07-05T09:48:21;99393.50;;;31.11;40.12
38900;BME280;24660;43.238;26.576;2022-07-05T09:50:50;99384.56;;;30.38;41.71
38900;BME280;24660;43.238;26.576;2022-07-05T09:53:17;99385.75;;;30.42;40.29
38900;BME280;24660;43.238;26.576;2022-07-05T09:55:45;99386.78;;;30.58;41.26
38900;BME280;24660;43.238;26.576;2022-07-05T09:58:14;99387.28;;;30.71;40.19
38900;BME280;24660;43.238;26.576;2022-07-05T10:00:39;99384.84;;;30.97;39.89
38900;BME280;24660;43.238;26.576;2022-07-05T10:03:04;99384.19;;;31.39;39.26
38900;BME280;24660;43.238;26.576;2022-07-05T10:05:30;99377.50;;;31.61;39.62
38900;BME280;24660;43.238;26.576;2022-07-05T10:07:56;99369.25;;;30.86;39.36
38900;BME280;24660;43.238;26.576;2022-07-05T10:10:23;99371.22;;;30.68;39.89
38900;BME280;24660;43.238;26.576;2022-07-05T10:12:49;99367.22;;;30.81;39.80
38900;BME280;24660;43.238;26.576;2022-07-05T10:15:16;99373.41;;;30.88;41.34
38900;BME280;24660;43.238;26.576;2022-07-05T10:17:43;99367.22;;;31.03;39.04
38900;BME280;24660;43.238;26.576;2022-07-05T10:20:12;99365.91;;;30.84;39.19
38900;BME280;24660;43.238;26.576;2022-07-05T10:22:38;99357.56;;;30.79;39.46
38900;BME280;24660;43.238;26.576;2022-07-05T10:25:03;99354.22;;;30.77;38.87
38900;BME280;24660;43.238;26.576;2022-07-05T10:27:29;99362.28;;;30.61;39.16
38900;BME280;24660;43.238;26.576;2022-07-05T10:29:56;99353.81;;;30.46;40.24
38900;BME280;24660;43.238;26.576;2022-07-05T10:32:22;99358.53;;;31.16;39.75
38900;BME280;24660;43.238;26.576;2022-07-05T10:34:48;99355.72;;;31.38;39.85
38900;BME280;24660;43.238;26.576;2022-07-05T10:37:16;99355.31;;;31.83;39.49
38900;BME280;24660;43.238;26.576;2022-07-05T10:39:41;99351.56;;;31.36;39.45
38900;BME280;24660;43.238;26.576;2022-07-05T10:42:07;99354.13;;;31.42;40.02
38900;BME280;24660;43.238;26.576;2022-07-05T10:44:33;99354.38;;;31.41;40.95
38900;BME280;24660;43.238;26.576;2022-07-05T10:47:08;99355.88;;;31.85;39.08
38900;BME280;24660;43.238;26.576;2022-07-05T10:49:35;99358.50;;;32.02;39.96
38900;BME280;24660;43.238;26.576;2022-07-05T10:52:01;99348.28;;;32.08;39.59
38900;BME280;24660;43.238;26.576;2022-07-05T10:54:26;99351.94;;;32.18;38.91
38900;BME280;24660;43.238;26.576;2022-07-05T10:57:29;99344.66;;;32.02;40.03
38900;BME280;24660;43.238;26.576;2022-07-05T11:02:17;99342.63;;;31.55;40.99
38900;BME280;24660;43.238;26.576;2022-07-05T11:04:42;99340.56;;;31.73;40.82
38900;BME280;24660;43.238;26.576;2022-07-05T11:07:08;99333.09;;;32.10;40.85
38900;BME280;24660;43.238;26.576;2022-07-05T11:12:08;99337.88;;;31.19;41.51
38900;BME280;24660;43.238;26.576;2022-07-05T11:14:37;99340.50;;;31.36;40.97
38900;BME280;24660;43.238;26.576;2022-07-05T11:22:19;99331.38;;;32.52;40.18
38900;BME280;24660;43.238;26.576;2022-07-05T11:24:44;99329.00;;;32.75;39.12
38900;BME280;24660;43.238;26.576;2022-07-05T11:27:12;99327.50;;;32.42;39.85
38900;BME280;24660;43.238;26.576;2022-07-05T11:32:08;99324.78;;;32.63;38.78
38900;BME280;24660;43.238;26.576;2022-07-05T11:34:34;99321.06;;;32.94;38.68
38900;BME280;24660;43.238;26.576;2022-07-05T11:39:44;99323.16;;;32.67;39.19
38900;BME280;24660;43.238;26.576;2022-07-05T11:42:10;99310.91;;;32.47;38.71
38900;BME280;24660;43.238;26.576;2022-07-05T11:44:36;99312.00;;;32.41;38.49
38900;BME280;24660;43.238;26.576;2022-07-05T11:47:02;99302.56;;;32.37;38.14
38900;BME280;24660;43.238;26.576;2022-07-05T11:49:28;99296.78;;;32.44;38.23
38900;BME280;24660;43.238;26.576;2022-07-05T11:54:28;99293.13;;;32.33;38.52
38900;BME280;24660;43.238;26.576;2022-07-05T11:56:53;99289.09;;;32.09;39.30
38900;BME280;24660;43.238;26.576;2022-07-05T11:59:20;99289.09;;;32.09;38.33
38900;BME280;24660;43.238;26.576;2022-07-05T12:01:48;99292.75;;;32.19;38.53
38900;BME280;24660;43.238;26.576;2022-07-05T12:04:22;99291.75;;;31.83;39.13
38900;BME280;24660;43.238;26.576;2022-07-05T12:06:48;99277.59;;;32.27;38.77
38900;BME280;24660;43.238;26.576;2022-07-05T12:09:14;99291.41;;;32.85;38.55
38900;BME280;24660;43.238;26.576;2022-07-05T12:11:39;99284.88;;;32.38;37.84
38900;BME280;24660;43.238;26.576;2022-07-05T12:14:21;99285.25;;;32.67;37.24
38900;BME280;24660;43.238;26.576;2022-07-05T12:16:47;99279.28;;;33.82;34.51
38900;BME280;24660;43.238;26.576;2022-07-05T12:19:12;99281.78;;;34.69;34.02
38900;BME280;24660;43.238;26.576;2022-07-05T12:21:52;99269.69;;;34.34;34.19
38900;BME280;24660;43.238;26.576;2022-07-05T12:24:26;99285.94;;;35.84;33.37
38900;BME280;24660;43.238;26.576;2022-07-05T12:26:51;99288.06;;;37.06;31.51
38900;BME280;24660;43.238;26.576;2022-07-05T12:29:19;99287.47;;;37.28;32.04
38900;BME280;24660;43.238;26.576;2022-07-05T12:34:37;99281.53;;;36.54;31.70
38900;BME280;24660;43.238;26.576;2022-07-05T12:37:05;99287.06;;;37.16;29.52
38900;BME280;24660;43.238;26.576;2022-07-05T12:39:30;99282.88;;;35.85;31.25
38900;BME280;24660;43.238;26.576;2022-07-05T12:41:56;99270.72;;;35.08;33.27
38900;BME280;24660;43.238;26.576;2022-07-05T12:44:21;99276.13;;;35.28;33.75
38900;BME280;24660;43.238;26.576;2022-07-05T12:46:50;99271.91;;;36.66;31.90
38900;BME280;24660;43.238;26.576;2022-07-05T12:49:18;99272.31;;;36.97;31.23
38900;BME280;24660;43.238;26.576;2022-07-05T12:51:46;99268.13;;;35.56;32.19
38900;BME280;24660;43.238;26.576;2022-07-05T12:54:22;99268.78;;;36.01;31.68
38900;BME280;24660;43.238;26.576;2022-07-05T12:57:03;99266.22;;;36.09;30.97
38900;BME280;24660;43.238;26.576;2022-07-05T13:02:34;99259.94;;;36.65;31.16
38900;BME280;24660;43.238;26.576;2022-07-05T13:05:00;99265.38;;;36.09;32.45
38900;BME280;24660;43.238;26.576;2022-07-05T13:10:34;99250.78;;;37.54;29.89
38900;BME280;24660;43.238;26.576;2022-07-05T13:13:10;99261.56;;;37.09;29.91